Time;durP1;ratioP1;P1;durP2;ratioP2;P2;SDS_P1;SDS_P2;PMS_P1;PMS_P2;Temp;Humidity;BMP_temperature;BMP_pressure;BME280_temperature;BME280_humidity;BME280_pressure;Samples;Min_cycle;Max_cycle;Signal;HPM_P1;HPM_P2
2023/01/05 00:00:25;;;;;;;;;;;9.50;99.90;;;8.84;100.00;97651.69;5043857;28;19924;-43
2023/01/05 00:02:51;;;;;;;;;;;9.40;99.90;;;8.82;100.00;97651.75;5044384;28;19994;-43
2023/01/05 00:05:17;;;;;;;;;;;9.30;99.90;;;8.71;100.00;97651.16;5035375;28;19920;-43
2023/01/05 00:07:43;;;;;;;;;;;9.20;99.90;;;8.67;100.00;97646.84;5036007;28;20534;-42
2023/01/05 00:22:29;;;;;;;;;;;9.20;99.90;;;8.62;100.00;97636.47;5033770;28;19916;-44
2023/01/05 00:23:59;;;;;;;;;;;9.20;99.90;;;8.70;100.00;97637.13;5030464;28;20292;-44
2023/01/05 00:26:25;;;;;;;;;;;9.20;99.90;;;8.75;100.00;97640.50;5044664;28;19920;-42
2023/01/05 00:28:50;;;;;;;;;;;9.30;99.90;;;8.78;100.00;97639.59;5042485;28;19951;-43
2023/01/05 00:31:16;;;;;;;;;;;9.30;99.90;;;8.85;100.00;97646.41;5047310;28;19975;-42
2023/01/05 00:33:42;;;;;;;;;;;9.40;99.90;;;8.90;100.00;97641.91;5049584;28;19930;-42
2023/01/05 00:36:08;;;;;;;;;;;9.40;99.90;;;8.98;100.00;97636.44;5029235;28;19971;-43
2023/01/05 00:38:34;;;;;;;;;;;9.50;99.90;;;9.01;100.00;97635.47;5047878;28;19920;-43
2023/01/05 00:41:00;;;;;;;;;;;9.60;99.90;;;9.07;100.00;97645.84;5045184;28;19925;-44
2023/01/05 00:43:25;;;;;;;;;;;9.60;99.90;;;9.13;100.00;97622.88;5042844;28;19986;-44
2023/01/05 00:45:51;;;;;;;;;;;9.70;99.90;;;9.22;100.00;97620.88;5046608;28;20480;-44
2023/01/05 00:48:16;;;;;;;;;;;9.70;99.90;;;9.24;100.00;97632.22;5053337;28;19925;-44
2023/01/05 00:50:42;;;;;;;;;;;9.80;99.90;;;9.27;100.00;97632.97;5054347;28;19978;-44
2023/01/05 00:53:07;;;;;;;;;;;9.80;99.90;;;9.28;100.00;97628.59;5045731;28;19931;-43
2023/01/05 00:55:33;;;;;;;;;;;9.80;99.90;;;9.29;100.00;97636.44;5046829;28;20345;-44
2023/01/05 00:57:59;;;;;;;;;;;9.80;99.90;;;9.28;100.00;97625.97;5049566;28;19920;-44
2023/01/05 01:00:24;;;;;;;;;;;9.80;99.90;;;9.27;100.00;97632.13;5040572;28;19971;-45
2023/01/05 01:02:51;;;;;;;;;;;9.80;99.90;;;9.28;100.00;97632.09;5054062;28;19920;-43
2023/01/05 01:05:17;;;;;;;;;;;9.80;99.90;;;9.33;100.00;97638.09;5053341;28;19966;-43
2023/01/05 01:07:43;;;;;;;;;;;9.80;99.90;;;9.38;100.00;97642.34;5048685;28;19928;-46
2023/01/05 01:10:10;;;;;;;;;;;9.90;99.90;;;9.34;100.00;97644.22;5050528;28;20398;-43
2023/01/05 01:12:35;;;;;;;;;;;9.90;99.90;;;9.34;100.00;97638.94;5050088;28;20391;-43
2023/01/05 01:15:01;;;;;;;;;;;9.90;99.90;;;9.33;100.00;97642.47;5049343;28;19917;-43
2023/01/05 01:17:27;;;;;;;;;;;9.90;99.90;;;9.33;100.00;97650.38;5049379;28;19946;-43
2023/01/05 01:19:52;;;;;;;;;;;9.90;99.90;;;9.33;100.00;97651.25;5050589;28;20102;-43
2023/01/05 01:22:18;;;;;;;;;;;9.90;99.90;;;9.39;100.00;97652.84;5045167;28;19964;-43
2023/01/05 01:24:44;;;;;;;;;;;9.90;99.90;;;9.38;100.00;97655.50;5049453;28;19917;-44
2023/01/05 01:27:09;;;;;;;;;;;9.90;99.90;;;9.29;100.00;97632.94;5046302;28;19925;-43
2023/01/05 01:29:35;;;;;;;;;;;9.90;99.90;;;9.20;100.00;97606.91;5054127;28;20379;-43
2023/01/05 01:32:00;;;;;;;;;;;9.90;99.90;;;9.29;100.00;97632.94;5049867;28;20431;-42
2023/01/05 01:34:26;;;;;;;;;;;9.90;99.90;;;9.27;100.00;97634.75;5056102;28;19928;-41
2023/01/05 01:36:54;;;;;;;;;;;9.80;99.90;;;9.29;100.00;97625.91;5057817;28;19924;-43
2023/01/05 01:39:19;;;;;;;;;;;9.80;99.90;;;9.35;100.00;97627.53;5053338;28;19999;-43
2023/01/05 01:41:45;;;;;;;;;;;9.90;99.90;;;9.30;100.00;97622.38;5054156;28;19920;-42
2023/01/05 01:44:48;;;;;;;;;;;9.90;99.90;;;9.29;100.00;97615.38;5044317;28;19959;-49
2023/01/05 01:47:22;;;;;;;;;;;9.90;99.90;;;9.29;100.00;97618.00;5051382;28;19935;-42
2023/01/05 01:49:49;;;;;;;;;;;9.80;99.90;;;9.32;100.00;97624.97;5055580;28;19924;-42
2023/01/05 01:52:15;;;;;;;;;;;9.80;99.90;;;9.31;100.00;97624.13;5025929;28;19949;-42
2023/01/05 01:54:41;;;;;;;;;;;9.90;99.90;;;9.33;100.00;97621.41;5047565;28;20320;-43
2023/01/05 01:57:09;;;;;;;;;;;9.90;99.90;;;9.34;100.00;97625.78;5050352;28;19916;-41
2023/01/05 01:59:35;;;;;;;;;;;9.90;99.90;;;9.31;100.00;97618.84;5030308;28;19979;-43
2023/01/05 02:02:00;;;;;;;;;;;9.90;99.90;;;9.32;100.00;97619.72;5049600;28;19977;-43
2023/01/05 02:04:28;;;;;;;;;;;9.90;99.90;;;9.34;100.00;97625.78;5053693;28;19964;-42
2023/01/05 02:06:54;;;;;;;;;;;9.90;99.90;;;9.39;100.00;97616.00;5049017;28;20026;-42
2023/01/05 02:09:20;;;;;;;;;;;9.90;99.90;;;9.41;100.00;97608.06;5046936;28;20401;-41
2023/01/05 02:11:57;;;;;;;;;;;9.90;99.90;;;9.42;100.00;97621.19;5046761;28;19964;-43
2023/01/05 02:14:25;;;;;;;;;;;10.00;99.90;;;9.41;100.00;97629.13;5032650;28;19920;-42
2023/01/05 02:17:12;;;;;;;;;;;10.00;99.90;;;9.40;100.00;97611.59;5029912;28;19917;-42
2023/01/05 02:20:15;;;;;;;;;;;10.00;99.90;;;9.40;100.00;97627.38;5028654;28;20396;-42
2023/01/05 02:22:58;;;;;;;;;;;9.90;99.90;;;9.41;100.00;97611.53;5049097;28;20386;-42
2023/01/05 02:25:38;;;;;;;;;;;10.00;99.90;;;9.36;100.00;97595.00;5050336;22;19929;-53
2023/01/05 02:28:16;;;;;;;;;;;10.00;99.90;;;9.47;100.00;97607.88;5026154;28;19927;-54
2023/01/05 02:31:07;;;;;;;;;;;10.00;99.90;;;9.45;100.00;97594.75;5014357;28;20142;-54
2023/01/05 02:33:53;;;;;;;;;;;10.00;99.90;;;9.47;100.00;97605.22;5034347;28;20449;-53
2023/01/05 02:36:35;;;;;;;;;;;10.00;99.90;;;9.49;100.00;97599.03;4994369;28;20012;-54
2023/01/05 02:39:12;;;;;;;;;;;10.10;99.90;;;9.48;100.00;97585.91;5010905;28;19921;-55
2023/01/05 02:41:52;;;;;;;;;;;10.00;99.90;;;9.49;100.00;97582.34;4994178;28;20378;-54
2023/01/05 02:44:19;;;;;;;;;;;10.00;99.90;;;9.50;100.00;97589.34;4992683;28;19925;-55
2023/01/05 02:46:45;;;;;;;;;;;10.00;99.90;;;9.49;100.00;97592.88;4986900;28;19936;-53
2023/01/05 02:49:13;;;;;;;;;;;10.10;99.90;;;9.50;100.00;97594.63;5016343;28;19924;-54
2023/01/05 02:51:43;;;;;;;;;;;10.10;99.90;;;9.51;100.00;97591.06;5012283;28;19950;-54
2023/01/05 02:54:15;;;;;;;;;;;10.00;99.90;;;9.54;100.00;97597.09;5014419;28;19956;-54
2023/01/05 02:56:50;;;;;;;;;;;10.10;99.90;;;9.53;100.00;97586.66;5009405;28;19921;-53
2023/01/05 02:59:26;;;;;;;;;;;10.10;99.90;;;9.59;100.00;97586.44;5014042;28;19924;-54
2023/01/05 03:02:04;;;;;;;;;;;10.10;99.90;;;9.52;100.00;97577.84;4991469;28;19917;-53
2023/01/05 03:04:44;;;;;;;;;;;10.10;99.90;;;9.57;100.00;97601.44;4996391;28;20385;-54
2023/01/05 03:07:12;;;;;;;;;;;10.10;99.90;;;9.57;100.00;97587.41;5008547;28;19922;-53
2023/01/05 03:09:38;;;;;;;;;;;10.10;99.90;;;9.58;100.00;97597.88;5014279;28;19917;-54
2023/01/05 03:15:29;;;;;;;;;;;10.10;99.90;;;9.58;100.00;97595.25;4998349;28;19932;-54
2023/01/05 03:18:01;;;;;;;;;;;10.20;99.90;;;9.57;100.00;97590.91;5009839;28;20197;-54
2023/01/05 03:20:28;;;;;;;;;;;10.10;99.90;;;9.58;100.00;97599.66;4998065;28;20783;-52
2023/01/05 03:37:48;;;;;;;;;;;10.20;99.90;;;9.63;100.00;97609.13;5010011;28;20023;-54
2023/01/05 03:40:19;;;;;;;;;;;10.20;99.90;;;9.64;100.00;97599.50;5007477;28;19921;-54
2023/01/05 03:42:46;;;;;;;;;;;10.20;99.90;;;9.64;100.00;97600.34;5011000;28;19979;-53
2023/01/05 03:45:12;;;;;;;;;;;10.20;99.90;;;9.65;100.00;97601.19;5002756;28;19948;-54
2023/01/05 03:47:37;;;;;;;;;;;10.20;99.90;;;9.65;100.00;97609.94;4986456;28;19921;-53
2023/01/05 03:50:04;;;;;;;;;;;10.20;99.90;;;9.66;100.00;97601.16;5011746;28;19921;-52
2023/01/05 03:52:29;;;;;;;;;;;10.20;99.90;;;9.68;100.00;97598.47;5007970;28;19937;-52
2023/01/05 03:54:55;;;;;;;;;;;10.20;99.90;;;9.69;100.00;97600.19;5007190;28;19925;-53
2023/01/05 03:57:20;;;;;;;;;;;10.20;99.90;;;9.64;100.00;97595.06;5003571;28;20630;-52
2023/01/05 03:59:46;;;;;;;;;;;10.20;99.90;;;9.68;100.00;97599.31;5006148;28;19928;-53
2023/01/05 04:02:11;;;;;;;;;;;10.20;99.90;;;9.71;100.00;97603.66;5010242;28;19964;-53
2023/01/05 04:04:37;;;;;;;;;;;10.20;99.90;;;9.70;100.00;97597.50;5012560;28;19924;-55
2023/01/05 04:07:03;;;;;;;;;;;10.20;99.90;;;9.68;100.00;97593.22;5007986;28;19952;-54
2023/01/05 04:09:28;;;;;;;;;;;10.20;99.90;;;9.67;100.00;97595.00;5006234;28;20355;-53
2023/01/05 04:11:54;;;;;;;;;;;10.20;99.90;;;9.65;100.00;97590.66;5006281;28;20043;-53
2023/01/05 04:14:19;;;;;;;;;;;10.20;99.90;;;9.64;100.00;97600.34;5008563;28;20136;-54
2023/01/05 04:16:45;;;;;;;;;;;10.20;99.90;;;9.66;100.00;97597.66;5006598;28;19975;-55
2023/01/05 04:19:11;;;;;;;;;;;10.20;99.90;;;9.66;100.00;97603.78;5008308;28;19932;-53
2023/01/05 04:21:36;;;;;;;;;;;10.20;99.90;;;9.65;100.00;97599.41;5004812;28;20624;-53
2023/01/05 04:24:02;;;;;;;;;;;10.20;99.90;;;9.61;100.00;97591.66;5008281;28;20431;-53
2023/01/05 04:26:28;;;;;;;;;;;10.20;99.90;;;9.64;100.00;97595.06;5009359;28;19926;-54
2023/01/05 04:28:53;;;;;;;;;;;10.20;99.90;;;9.64;100.00;97602.13;5004976;28;19925;-54
2023/01/05 04:31:19;;;;;;;;;;;10.20;99.90;;;9.65;100.00;97586.25;4993944;28;19964;-54
2023/01/05 04:33:44;;;;;;;;;;;10.20;99.90;;;9.66;100.00;97595.03;5003124;28;20896;-55
2023/01/05 04:36:10;;;;;;;;;;;10.20;99.90;;;9.67;100.00;97591.47;5010225;28;19979;-53
2023/01/05 04:38:36;;;;;;;;;;;10.20;99.90;;;9.69;100.00;97587.00;5009756;28;20336;-54
2023/01/05 04:41:01;;;;;;;;;;;10.20;99.90;;;9.68;100.00;97580.91;5006390;28;20020;-55
2023/01/05 04:43:27;;;;;;;;;;;10.30;99.90;;;9.73;100.00;97600.06;5014676;28;19924;-55
2023/01/05 04:45:53;;;;;;;;;;;10.30;99.90;;;9.74;100.00;97591.25;5007626;28;19971;-56
2023/01/05 04:48:18;;;;;;;;;;;10.30;99.90;;;9.72;100.00;97590.41;5007470;28;19980;-55
2023/01/05 04:50:44;;;;;;;;;;;10.30;99.90;;;9.78;100.00;97597.28;5011927;28;19984;-55
2023/01/05 04:53:10;;;;;;;;;;;10.30;99.90;;;9.79;100.00;97598.16;4987305;28;20273;-56
2023/01/05 04:55:35;;;;;;;;;;;10.30;99.90;;;9.77;100.00;97589.44;5007912;28;20571;-53
2023/01/05 04:58:01;;;;;;;;;;;10.30;99.90;;;9.81;100.00;97601.59;5010330;28;20403;-54
2023/01/05 05:00:29;;;;;;;;;;;10.40;99.90;;;9.87;100.00;97602.28;5006722;28;20285;-54
2023/01/05 05:02:55;;;;;;;;;;;10.40;99.90;;;9.91;100.00;97601.25;5005415;28;19936;-54
2023/01/05 05:05:20;;;;;;;;;;;10.40;99.90;;;9.96;100.00;97603.78;5009843;28;19921;-53
2023/01/05 05:07:46;;;;;;;;;;;10.50;99.90;;;10.00;100.00;97602.75;5003355;28;20969;-53
2023/01/05 05:10:11;;;;;;;;;;;10.50;99.90;;;10.00;100.00;97608.03;5013304;28;19940;-56
2023/01/05 05:12:37;;;;;;;;;;;10.50;99.90;;;10.04;100.00;97607.00;5008403;28;20572;-55
2023/01/05 05:15:03;;;;;;;;;;;10.60;99.90;;;10.05;100.00;97611.38;5008420;28;19936;-55
2023/01/05 05:17:29;;;;;;;;;;;10.60;99.90;;;10.08;100.00;97613.91;5009849;28;19975;-56
2023/01/05 05:19:54;;;;;;;;;;;10.60;99.90;;;10.10;100.00;97621.75;5008797;28;19936;-55
2023/01/05 05:22:20;;;;;;;;;;;10.60;99.90;;;10.10;100.00;97625.28;5007411;28;19932;-55
2023/01/05 05:24:46;;;;;;;;;;;10.60;99.90;;;10.13;100.00;97635.69;5007688;28;19957;-55
2023/01/05 05:27:11;;;;;;;;;;;10.70;99.90;;;10.11;100.00;97626.13;5006869;28;20178;-56
2023/01/05 05:29:37;;;;;;;;;;;10.70;99.90;;;10.03;100.00;97625.50;5003989;28;19929;-56
2023/01/05 05:32:03;;;;;;;;;;;10.60;99.90;;;10.00;100.00;97639.63;5010602;28;20470;-56
2023/01/05 05:34:29;;;;;;;;;;;10.50;99.90;;;9.96;100.00;97638.03;5014045;28;19952;-57
2023/01/05 05:36:54;;;;;;;;;;;10.50;99.90;;;9.94;100.00;97655.63;5008174;28;19928;-56
2023/01/05 05:39:20;;;;;;;;;;;10.50;99.90;;;9.84;100.00;97639.25;5010012;28;20024;-56
2023/01/05 05:41:45;;;;;;;;;;;10.40;99.90;;;9.77;100.00;97647.38;5000527;28;20451;-55
2023/01/05 05:44:11;;;;;;;;;;;10.30;99.90;;;9.69;100.00;97652.84;5008305;28;19924;-54
2023/01/05 05:46:37;;;;;;;;;;;10.30;99.90;;;9.61;100.00;97647.81;5002930;28;20452;-54
2023/01/05 05:49:03;;;;;;;;;;;10.20;99.90;;;9.57;100.00;97656.72;5004165;28;20121;-54
2023/01/05 05:51:29;;;;;;;;;;;10.10;99.90;;;9.56;100.00;97641.81;5006639;28;19968;-55
2023/01/05 05:53:54;;;;;;;;;;;10.10;99.90;;;9.50;100.00;97655.19;5009031;28;19929;-54
2023/01/05 05:56:20;;;;;;;;;;;10.10;99.90;;;9.57;100.00;97648.81;5008387;28;20453;-54
2023/01/05 05:58:45;;;;;;;;;;;10.10;99.90;;;9.48;100.00;97651.72;5009128;28;19925;-53
2023/01/05 06:01:11;;;;;;;;;;;10.10;99.90;;;9.44;100.00;97652.69;5006604;28;19932;-55
2023/01/05 06:03:37;;;;;;;;;;;10.00;99.90;;;9.41;100.00;97671.25;4996522;28;19975;-54
2023/01/05 06:06:03;;;;;;;;;;;10.00;99.90;;;9.41;100.00;97668.59;5009390;28;20022;-53
2023/01/05 06:08:29;;;;;;;;;;;9.90;99.90;;;9.31;100.00;97673.25;5008811;28;20032;-55
2023/01/05 06:10:55;;;;;;;;;;;9.90;99.90;;;9.27;100.00;97677.72;5009102;28;20476;-54
2023/01/05 06:13:21;;;;;;;;;;;9.90;99.90;;;9.23;100.00;97693.66;5006238;28;19925;-55
2023/01/05 06:15:46;;;;;;;;;;;9.90;99.90;;;9.15;100.00;97681.56;5008748;28;19921;-53
2023/01/05 06:18:12;;;;;;;;;;;9.80;99.90;;;9.07;100.00;97698.47;5015432;28;19927;-55
2023/01/05 06:20:38;;;;;;;;;;;9.70;99.90;;;9.02;100.00;97705.59;5013059;28;20003;-55
2023/01/05 06:23:04;;;;;;;;;;;9.60;99.90;;;8.96;100.00;97694.31;5011758;28;20458;-54
2023/01/05 06:25:29;;;;;;;;;;;9.60;99.90;;;8.85;100.00;97696.38;5019081;28;19917;-54
2023/01/05 06:27:55;;;;;;;;;;;9.50;99.90;;;8.78;100.00;97706.19;5013059;28;19955;-55
2023/01/05 06:30:20;;;;;;;;;;;9.40;99.90;;;8.74;100.00;97711.53;5011448;28;19925;-55
2023/01/05 06:32:46;;;;;;;;;;;9.40;99.90;;;8.68;100.00;97701.19;5010996;28;19925;-55
2023/01/05 06:35:12;;;;;;;;;;;9.30;99.90;;;8.65;100.00;97728.44;5013126;28;20365;-53
2023/01/05 06:37:37;;;;;;;;;;;9.20;99.90;;;8.62;100.00;97728.50;5012185;28;19959;-52
2023/01/05 06:40:03;;;;;;;;;;;9.20;99.90;;;8.62;100.00;97735.53;5009877;28;19968;-55
2023/01/05 06:42:29;;;;;;;;;;;9.20;99.90;;;8.57;100.00;97747.00;5012115;28;20413;-55
2023/01/05 06:44:54;;;;;;;;;;;9.20;99.90;;;8.58;100.00;97734.75;5005878;28;20032;-55
2023/01/05 06:47:20;;;;;;;;;;;9.10;99.90;;;8.60;100.00;97740.81;5008598;28;19929;-56
2023/01/05 06:49:46;;;;;;;;;;;9.10;99.90;;;8.59;100.00;97745.19;5009715;28;20011;-55
2023/01/05 06:52:11;;;;;;;;;;;9.20;99.90;;;8.59;100.00;97753.06;5016588;28;20008;-55
2023/01/05 06:54:37;;;;;;;;;;;9.20;99.90;;;8.55;100.00;97740.91;5011254;28;20372;-55
2023/01/05 06:57:03;;;;;;;;;;;9.20;99.90;;;8.53;100.00;97742.72;5010732;28;19925;-55
2023/01/05 06:59:28;;;;;;;;;;;9.10;99.90;;;8.53;100.00;97760.25;5001441;28;20454;-55
2023/01/05 07:01:54;;;;;;;;;;;9.10;99.90;;;8.51;100.00;97762.94;5010064;28;20011;-54
2023/01/05 07:04:19;;;;;;;;;;;9.10;99.90;;;8.50;100.00;97761.19;5006628;28;19917;-53
2023/01/05 07:06:45;;;;;;;;;;;9.10;99.90;;;8.47;100.00;97763.00;5012938;28;20031;-55
2023/01/05 07:09:11;;;;;;;;;;;9.10;99.90;;;8.51;100.00;97765.56;4989869;28;19925;-55
2023/01/05 07:11:36;;;;;;;;;;;9.10;99.90;;;8.51;100.00;97768.19;5014521;28;20589;-55
2023/01/05 07:14:02;;;;;;;;;;;9.10;99.90;;;8.50;100.00;97761.19;5007989;28;19953;-55
2023/01/05 07:16:27;;;;;;;;;;;9.10;99.90;;;8.50;100.00;97769.06;5016656;28;19924;-56
2023/01/05 07:18:53;;;;;;;;;;;9.10;99.90;;;8.48;100.00;97767.38;5006240;28;19952;-54
2023/01/05 07:21:19;;;;;;;;;;;9.10;99.90;;;8.50;100.00;97770.84;5014416;28;19924;-55
2023/01/05 07:23:44;;;;;;;;;;;9.10;99.90;;;8.45;100.00;97768.31;5008142;28;20457;-56
2023/01/05 07:26:10;;;;;;;;;;;9.00;99.90;;;8.49;100.00;97769.09;5015134;28;19987;-55
2023/01/05 07:28:37;;;;;;;;;;;9.00;99.90;;;8.47;100.00;97763.00;5016469;28;20022;-56
2023/01/05 07:31:02;;;;;;;;;;;9.00;99.90;;;8.44;100.00;97769.22;5012863;28;20429;-56
2023/01/05 07:33:28;;;;;;;;;;;9.00;99.90;;;8.42;100.00;97768.41;5015189;28;19921;-53
2023/01/05 07:35:54;;;;;;;;;;;9.00;99.90;;;8.37;100.00;97768.44;5012545;28;19917;-55
2023/01/05 07:38:19;;;;;;;;;;;9.00;99.90;;;8.43;100.00;97779.75;5013743;28;19925;-54
2023/01/05 07:40:45;;;;;;;;;;;9.00;99.90;;;8.46;100.00;97767.41;5016336;28;19964;-54
2023/01/05 07:43:10;;;;;;;;;;;9.00;99.90;;;8.48;100.00;97768.25;5011297;28;20178;-54
2023/01/05 07:45:36;;;;;;;;;;;9.00;99.90;;;8.52;100.00;97775.16;5013295;28;19952;-54
2023/01/05 07:48:02;;;;;;;;;;;9.00;99.90;;;8.50;100.00;97778.72;5012968;28;19928;-54
2023/01/05 07:50:28;;;;;;;;;;;9.00;99.90;;;8.51;100.00;97783.09;5018404;28;20016;-54
2023/01/05 07:52:54;;;;;;;;;;;9.00;99.90;;;8.54;100.00;97781.25;5008756;28;19925;-54
2023/01/05 07:55:19;;;;;;;;;;;9.00;99.90;;;8.57;100.00;97785.56;5011747;28;22263;-55
2023/01/05 07:57:46;;;;;;;;;;;9.10;99.90;;;8.57;100.00;97793.47;5013307;28;19929;-54
2023/01/05 08:00:13;;;;;;;;;;;9.00;99.90;;;8.52;100.00;97785.66;5012653;28;19980;-54
2023/01/05 08:02:40;;;;;;;;;;;9.00;99.90;;;8.57;100.00;97791.69;5008373;28;19917;-54
2023/01/05 08:05:06;;;;;;;;;;;9.10;99.90;;;8.59;100.00;97805.66;5004112;28;19998;-55
2023/01/05 08:07:32;;;;;;;;;;;9.10;99.90;;;8.66;100.00;97809.03;5012084;28;19936;-55
2023/01/05 08:15:26;;;;;;;;;;;9.10;99.90;;;8.65;100.00;97820.47;5015271;28;19971;-54
2023/01/05 08:17:51;;;;;;;;;;;9.20;99.90;;;8.62;100.00;97822.28;5006034;28;19917;-53
2023/01/05 08:20:17;;;;;;;;;;;9.20;99.90;;;8.65;100.00;97830.97;5016390;28;19925;-55
2023/01/05 08:22:42;;;;;;;;;;;9.20;99.90;;;8.73;100.00;97825.53;5008691;28;19970;-54
2023/01/05 08:25:08;;;;;;;;;;;9.20;99.90;;;8.75;100.00;97842.13;5009247;23;20224;-42
2023/01/05 08:27:34;;;;;;;;;;;9.20;99.90;;;8.74;100.00;97827.25;5022053;28;19924;-43
2023/01/05 08:30:00;;;;;;;;;;;9.30;99.90;;;8.79;100.00;97841.16;5021017;28;20912;-43
2023/01/05 08:32:25;;;;;;;;;;;9.30;99.90;;;8.85;100.00;97843.66;5026625;28;20050;-45
2023/01/05 08:34:51;;;;;;;;;;;9.30;99.90;;;8.83;100.00;97845.47;5038037;28;20016;-43
2023/01/05 08:37:18;;;;;;;;;;;9.40;99.90;;;8.83;100.00;97847.22;5050316;28;19916;-44
2023/01/05 08:39:43;;;;;;;;;;;9.40;99.90;;;8.84;100.00;97851.59;5041666;28;19924;-43
2023/01/05 08:42:09;;;;;;;;;;;9.40;99.90;;;8.93;100.00;97846.97;5040713;28;20385;-43
2023/01/05 08:44:35;;;;;;;;;;;9.50;99.90;;;8.95;100.00;97858.34;5045351;28;19962;-45
2023/01/05 08:47:00;;;;;;;;;;;9.50;99.90;;;8.95;100.00;97860.09;5048157;28;20020;-44
2023/01/05 08:49:26;;;;;;;;;;;9.50;99.90;;;8.94;100.00;97861.00;5045745;28;20066;-42
2023/01/05 08:51:52;;;;;;;;;;;9.50;99.90;;;9.05;100.00;97855.50;5047426;28;19943;-43
2023/01/05 08:54:17;;;;;;;;;;;9.50;99.90;;;9.10;100.00;97866.78;5046359;28;19925;-43
2023/01/05 08:56:43;;;;;;;;;;;9.60;99.90;;;9.12;100.00;97865.84;5047521;28;19951;-43
2023/01/05 08:59:12;;;;;;;;;;;9.60;99.90;;;9.12;100.00;97871.09;5034510;28;20007;-43
2023/01/05 09:01:38;;;;;;;;;;;9.70;99.90;;;9.22;100.00;97865.59;5044475;28;19912;-43
2023/01/05 09:04:04;;;;;;;;;;;9.70;99.90;;;9.16;100.00;97870.13;5045643;28;20606;-43
2023/01/05 09:06:30;;;;;;;;;;;9.80;99.90;;;9.05;100.00;97858.97;5044284;28;19927;-44
2023/01/05 09:08:55;;;;;;;;;;;9.70;99.90;;;9.20;100.00;97880.56;5043512;28;20002;-43
2023/01/05 09:11:23;;;;;;;;;;;9.70;99.90;;;9.23;100.00;97881.38;5046898;28;19965;-44
2023/01/05 09:13:53;;;;;;;;;;;9.80;99.90;;;9.24;100.00;97884.84;5049676;28;19916;-42
2023/01/05 09:16:21;;;;;;;;;;;9.80;99.90;;;9.28;100.00;97887.38;5048646;28;19932;-43
2023/01/05 09:18:48;;;;;;;;;;;9.80;99.90;;;9.40;100.00;97888.84;5042972;28;20410;-42
2023/01/05 09:21:14;;;;;;;;;;;9.90;99.90;;;9.37;100.00;97881.03;5044442;28;19931;-43
2023/01/05 09:23:40;;;;;;;;;;;10.00;99.90;;;9.52;100.00;97909.59;5046922;28;19920;-43
2023/01/05 09:26:08;;;;;;;;;;;10.10;99.90;;;9.52;100.00;97906.97;5043472;28;19931;-43
2023/01/05 09:28:37;;;;;;;;;;;10.10;99.90;;;9.48;100.00;97892.16;5049420;28;19921;-43
2023/01/05 09:31:16;;;;;;;;;;;10.10;99.90;;;9.52;100.00;97911.38;5050303;28;20384;-43
2023/01/05 09:33:42;;;;;;;;;;;10.20;99.90;;;9.61;100.00;97900.63;5049101;28;19923;-44
2023/01/05 09:36:09;;;;;;;;;;;10.20;99.90;;;9.66;100.00;97919.81;5041182;28;19925;-43
2023/01/05 09:38:35;;;;;;;;;;;10.30;99.90;;;9.68;100.00;97910.09;5047716;28;19930;-43
2023/01/05 09:41:07;;;;;;;;;;;10.30;99.90;;;9.73;100.00;97916.13;5041977;28;19920;-43
2023/01/05 09:43:37;;;;;;;;;;;10.30;99.90;;;9.71;100.00;97902.13;5039107;28;20878;-42
2023/01/05 09:46:05;;;;;;;;;;;10.40;99.90;;;9.78;100.00;97923.03;5048848;28;19925;-42
2023/01/05 09:48:38;;;;;;;;;;;10.40;99.90;;;9.80;100.00;97915.94;5055408;28;19951;-42
2023/01/05 09:51:03;;;;;;;;;;;10.40;99.90;;;9.87;100.00;97938.59;5036904;28;19952;-42
2023/01/05 09:53:29;;;;;;;;;;;10.50;99.90;;;9.93;100.00;97939.31;5051364;28;19967;-42
2023/01/05 09:55:56;;;;;;;;;;;10.50;99.90;;;9.89;100.00;97924.50;5046471;28;19916;-42
2023/01/05 09:58:26;;;;;;;;;;;10.50;99.90;;;9.84;100.00;97936.91;5041514;28;20243;-42
2023/01/05 10:01:13;;;;;;;;;;;10.50;99.90;;;9.92;100.00;97924.44;5048356;28;19917;-42
2023/01/05 10:03:43;;;;;;;;;;;10.50;99.90;;;9.86;100.00;97942.16;5050215;28;20063;-43
2023/01/05 10:06:12;;;;;;;;;;;10.50;99.90;;;9.88;100.00;97932.44;5049226;28;19923;-42
2023/01/05 10:08:40;;;;;;;;;;;10.50;99.90;;;9.79;100.00;97940.56;5048151;28;20445;-43
2023/01/05 10:14:09;;;;;;;;;;;10.50;99.90;;;9.95;100.00;97936.66;5031352;28;20414;-43
2023/01/05 10:16:34;;;;;;;;;;;10.60;99.90;;;9.80;100.00;97895.75;5021022;28;19923;-43
2023/01/05 10:19:00;;;;;;;;;;;10.60;99.90;;;10.08;100.00;97926.63;5050817;28;19920;-43
2023/01/05 10:21:51;;;;;;;;;;;10.70;99.90;;;10.06;100.00;97926.69;5049327;28;19960;-42
2023/01/05 10:24:29;;;;;;;;;;;10.70;99.90;;;10.07;100.00;97928.44;5026136;28;19925;-42
2023/01/05 10:27:07;;;;;;;;;;;10.70;99.90;;;10.17;100.00;97920.25;5040941;28;19917;-44
2023/01/05 10:29:41;;;;;;;;;;;10.70;99.90;;;10.14;100.00;97921.22;5038069;28;19925;-42
2023/01/05 10:32:25;;;;;;;;;;;10.80;99.90;;;10.04;100.00;97902.16;5022361;28;20384;-43
2023/01/05 10:34:55;;;;;;;;;;;10.80;99.90;;;10.16;100.00;97922.03;5024523;28;20011;-45
2023/01/05 10:37:53;;;;;;;;;;;10.80;99.90;;;10.11;100.00;97911.63;5034993;28;24814;-43
2023/01/05 10:40:42;;;;;;;;;;;10.80;99.90;;;10.24;100.00;97930.59;5040924;28;20035;-43
2023/01/05 10:43:41;;;;;;;;;;;10.90;99.90;;;10.30;100.00;97927.81;5014776;28;20307;-42
2023/01/05 10:46:11;;;;;;;;;;;10.90;99.90;;;10.31;100.00;97932.19;5034060;28;20818;-42
2023/01/05 10:48:37;;;;;;;;;;;10.90;99.90;;;10.31;100.00;97919.00;5037958;28;19944;-43
2023/01/05 10:51:03;;;;;;;;;;;11.00;99.90;;;10.33;100.00;97934.78;5043218;28;19986;-42
2023/01/05 10:53:33;;;;;;;;;;;11.00;99.90;;;10.24;100.00;97914.78;5037510;28;19921;-42
2023/01/05 10:56:08;;;;;;;;;;;11.00;99.90;;;10.37;100.00;97931.16;5042588;28;19932;-42
2023/01/05 10:58:39;;;;;;;;;;;11.00;99.90;;;10.42;100.00;97926.63;5034063;28;19923;-43
2023/01/05 11:01:22;;;;;;;;;;;11.00;99.90;;;10.29;100.00;97912.03;5046348;28;19924;-42
2023/01/05 11:03:51;;;;;;;;;;;11.00;99.90;;;10.44;100.00;97931.84;5023814;28;19921;-42
2023/01/05 11:06:29;;;;;;;;;;;11.00;99.90;;;10.45;100.00;97928.31;5027555;28;19920;-44
2023/01/05 11:09:04;;;;;;;;;;;11.10;99.90;;;10.38;100.00;97932.03;5047235;28;19974;-43
2023/01/05 11:11:30;;;;;;;;;;;11.00;99.90;;;10.35;100.00;97932.97;5048773;28;20077;-43
2023/01/05 11:13:57;;;;;;;;;;;11.00;99.90;;;10.34;100.00;97923.34;5006196;28;20484;-43
2023/01/05 11:16:28;;;;;;;;;;;11.00;99.90;;;10.34;100.00;97938.28;5021600;28;20006;-42
2023/01/05 11:18:59;;;;;;;;;;;10.90;99.90;;;10.39;100.00;97937.28;5031402;28;20027;-43
2023/01/05 11:21:38;;;;;;;;;;;11.00;99.90;;;10.34;100.00;97939.16;5027349;28;19971;-43
2023/01/05 11:24:04;;;;;;;;;;;10.90;99.90;;;10.24;100.00;97921.81;5049404;28;19931;-42
2023/01/05 11:26:37;;;;;;;;;;;10.90;99.90;;;10.27;100.00;97942.84;5023933;28;19924;-42
2023/01/05 11:29:10;;;;;;;;;;;10.90;99.90;;;10.27;100.00;97937.56;5030015;28;20086;-43
2023/01/05 11:31:52;;;;;;;;;;;10.90;99.90;;;10.20;100.00;97926.31;5046228;28;19928;-40
2023/01/05 11:34:18;;;;;;;;;;;10.90;99.90;;;10.37;100.00;97938.19;5018648;28;20495;-40
2023/01/05 11:37:11;;;;;;;;;;;10.90;99.90;;;10.36;100.00;97937.34;5048917;28;19920;-40
2023/01/05 11:39:45;;;;;;;;;;;10.90;99.90;;;10.30;100.00;97934.84;5044948;28;19986;-40
2023/01/05 11:42:18;;;;;;;;;;;10.90;99.90;;;10.31;100.00;97937.47;5043331;28;19917;-40
2023/01/05 11:44:47;;;;;;;;;;;10.90;99.90;;;10.35;100.00;97929.47;5034444;28;20076;-40
2023/01/05 11:47:22;;;;;;;;;;;10.90;99.90;;;10.37;100.00;97939.06;5042245;28;20404;-41
2023/01/05 11:49:49;;;;;;;;;;;10.90;99.90;;;10.32;100.00;97933.94;5044808;28;19923;-40
2023/01/05 11:52:33;;;;;;;;;;;10.90;99.90;;;10.31;100.00;97928.69;5048622;28;19945;-41
2023/01/05 11:54:59;;;;;;;;;;;10.90;99.90;;;10.25;100.00;97910.38;5047783;28;19924;-41
2023/01/05 11:57:25;;;;;;;;;;;10.90;99.90;;;10.32;100.00;97926.03;5044428;28;20420;-41
2023/01/05 11:59:53;;;;;;;;;;;10.90;99.90;;;10.26;100.00;97928.78;5041964;28;19925;-40
2023/01/05 12:02:41;;;;;;;;;;;10.90;99.90;;;10.28;100.00;97932.25;5052026;28;20388;-40